Watertown, WI

1:17 AM CDT on September 02, 2014 (GMT -0500)
Dodge County | Change Station
CLOSE
Current Station
Airport
Location: Juneau,
Elevation: 935 ft
Nearby Weather Stations

Elev 935 ft 43.43 °N, 88.70 °W | Updated 22 minutes ago

Clear
Clear
61 °F
Feels Like 61 °F
N
4
Wind Variable Wind from SW

Today
High -- | Low -- °F
--% Chance of Precip.
Yesterday
High -- | Low -- °F
Precip. -- in
6:20 AM 7:28 PM
Waxing Crescent, 48% visible
Pressure 29.87 in
Visibility 5.0 miles
Clouds Clear
Dew Point 61 °F
Humidity 99%
Rainfall 0.00 in
Snow Depth Not available.
UV 0 out of 12
Pollen 6.30 out of 12
Air Quality Not available.
Flu Activity Not available.
METAR KUNU 020555Z AUTO 22003KT 5SM BR CLR 16/16 A2987 RMK AO2 T01620160 10204 20161 402450161

More Conditions Fewer Conditions

Pressure 29.87 in
Visibility 5.0 miles
Clouds Clear
Dew Point 61 °F
Humidity 99%
Rainfall 0.00 in
Snow Depth Not available.
UV 0 out of 12
Pollen 6.30 out of 12
Air Quality Not available.
Flu Activity Not available.
METAR KUNU 020555Z AUTO 22003KT 5SM BR CLR 16/16 A2987 RMK AO2 T01620160 10204 20161 402450161

More Conditions Fewer Conditions

10-Day Weather Forecast

Almanac

Astronomy

Sep. 02, 2014 Rise Set
Actual Time 6:20 AM CDT 7:28 PM CDT
Civil Twilight 5:50 AM CDT 7:57 PM CDT
Nautical Twilight 5:15 AM CDT 8:32 PM CDT
Astronomical Twilight 4:38 AM CDT 9:08 PM CDT
Moon 2:15 PM CDT No Moon Set
Length of Visible Light 14h 06m
Length of Day
13h 07m
Tomorrow will be 2m 51s shorter.
Waxing Crescent, 48% of the Moon is Illuminated
Today
Waxing Crescent
Sep 2
First Quarter
Sep 8
Full
Sep 15
Last Quarter
Sep 24
New

Today's Extremes

State Highs State Lows

Community

WunderPhotos

Upload Photos

1,749,581 photos uploaded!

WunderBlogs® & News

Nearby

Snow Depth

Station Depth Elevation
No new snow has been reported.

Earthquake Activity

City Distance Mag. Time & Date
No recent earthquake activity has been reported nearby.
Minimum magnitude displayed is 2.5.

Coastal Water Temperatures

Place Temperature
No Stations Reporting

Nearby Weather Stations